Time;durP1;ratioP1;P1;durP2;ratioP2;P2;SDS_P1;SDS_P2;PMS_P1;PMS_P2;Temp;Humidity;BMP_temperature;BMP_pressure;BME280_temperature;BME280_humidity;BME280_pressure;Samples;Min_cycle;Max_cycle;Signal;HPM_P1;HPM_P2
2022/12/26 00:00:56;;;;;;;8.27;7.47;;;18.40;64.60;;;;;;5082599;28;20267;-68
2022/12/26 00:03:22;;;;;;;7.97;7.13;;;18.50;64.70;;;;;;5054181;28;20196;-67
2022/12/26 00:05:47;;;;;;;8.18;7.38;;;18.40;64.60;;;;;;5072754;28;20354;-67
2022/12/26 00:08:15;;;;;;;8.30;6.93;;;18.40;64.50;;;;;;5073668;28;20569;-67
2022/12/26 00:10:41;;;;;;;9.10;7.45;;;18.40;64.50;;;;;;5074033;28;20289;-67
2022/12/26 00:13:06;;;;;;;8.30;7.00;;;18.40;64.50;;;;;;5074986;28;20182;-68
2022/12/26 00:15:32;;;;;;;8.00;7.10;;;18.40;64.50;;;;;;5056659;28;20192;-68
2022/12/26 00:17:58;;;;;;;8.52;7.35;;;18.40;64.50;;;;;;5073909;28;20201;-67
2022/12/26 00:20:24;;;;;;;7.80;7.00;;;18.50;64.50;;;;;;5073587;28;20216;-68
2022/12/26 00:22:50;;;;;;;7.97;7.18;;;18.50;64.60;;;;;;5065652;28;20240;-67
2022/12/26 00:25:15;;;;;;;9.10;7.95;;;18.40;64.40;;;;;;5057130;28;20185;-68
2022/12/26 00:27:41;;;;;;;8.30;6.80;;;18.40;64.50;;;;;;5064912;28;20671;-67
2022/12/26 00:30:08;;;;;;;7.45;6.75;;;18.50;64.90;;;;;;5073664;28;20233;-68
2022/12/26 00:32:34;;;;;;;8.02;6.78;;;18.40;64.50;;;;;;5056627;28;20268;-67
2022/12/26 00:34:59;;;;;;;8.27;7.18;;;18.40;64.50;;;;;;5073271;28;20186;-67
2022/12/26 00:37:25;;;;;;;7.18;6.30;;;18.40;64.40;;;;;;5053497;28;20629;-67
2022/12/26 00:39:51;;;;;;;7.65;6.88;;;18.40;64.40;;;;;;5055991;28;20259;-68
2022/12/26 00:42:16;;;;;;;7.15;6.45;;;18.40;64.50;;;;;;5087092;28;20181;-67
2022/12/26 00:44:42;;;;;;;7.50;6.80;;;18.40;64.40;;;;;;5081822;28;20272;-67
2022/12/26 00:47:08;;;;;;;7.13;6.30;;;18.40;64.50;;;;;;5056748;28;20178;-67
2022/12/26 00:49:34;;;;;;;8.88;7.10;;;18.40;64.40;;;;;;5073910;28;20221;-68
2022/12/26 00:51:59;;;;;;;8.13;6.75;;;18.40;64.40;;;;;;5064720;28;20182;-68
2022/12/26 00:54:25;;;;;;;7.15;6.47;;;18.40;64.40;;;;;;5073099;28;20318;-67
2022/12/26 00:56:51;;;;;;;7.95;6.68;;;18.40;64.50;;;;;;5072913;28;20221;-68
2022/12/26 00:59:17;;;;;;;7.47;6.57;;;18.40;64.40;;;;;;5052542;28;20202;-67
2022/12/26 01:01:42;;;;;;;7.72;6.38;;;18.40;64.40;;;;;;5056073;28;20322;-67
2022/12/26 01:04:08;;;;;;;7.47;6.50;;;18.40;64.40;;;;;;5073078;28;20197;-67
2022/12/26 01:06:34;;;;;;;7.20;6.30;;;18.40;64.40;;;;;;5056000;28;20193;-68
2022/12/26 01:08:59;;;;;;;7.47;6.57;;;18.40;64.30;;;;;;5055820;28;20243;-67
2022/12/26 01:11:41;;;;;;;7.32;6.50;;;18.40;64.40;;;;;;5056098;28;20326;-68
2022/12/26 01:14:15;;;;;;;8.45;6.65;;;18.40;64.40;;;;;;5081143;28;20239;-68
2022/12/26 01:16:44;;;;;;;6.85;5.88;;;18.40;64.30;;;;;;5072401;28;20259;-68
2022/12/26 01:19:12;;;;;;;7.25;6.47;;;18.40;64.30;;;;;;5052488;28;20221;-67
2022/12/26 01:21:38;;;;;;;7.20;6.03;;;18.40;64.30;;;;;;5070912;28;20194;-67
2022/12/26 01:24:05;;;;;;;6.93;6.22;;;18.40;64.30;;;;;;5072616;28;20190;-68
2022/12/26 01:26:31;;;;;;;7.15;6.45;;;18.40;64.30;;;;;;5072402;28;20189;-68
2022/12/26 01:28:56;;;;;;;6.43;5.82;;;18.40;64.30;;;;;;5055145;28;20198;-67
2022/12/26 01:31:23;;;;;;;7.00;6.30;;;18.40;64.30;;;;;;5073580;28;20523;-67
2022/12/26 01:33:49;;;;;;;6.35;5.75;;;18.40;64.30;;;;;;5055858;28;20226;-68
2022/12/26 01:36:16;;;;;;;6.97;6.20;;;18.40;64.30;;;;;;5055648;28;20204;-68
2022/12/26 01:38:43;;;;;;;6.82;6.00;;;18.40;65.20;;;;;;5072169;28;20296;-67
2022/12/26 01:41:15;;;;;;;6.10;5.43;;;18.40;64.40;;;;;;5064024;28;20189;-68
2022/12/26 01:44:03;;;;;;;6.18;5.57;;;18.40;64.30;;;;;;5071902;28;20656;-67
2022/12/26 01:46:44;;;;;;;7.45;5.63;;;18.40;64.30;;;;;;5071890;28;20194;-68
2022/12/26 01:49:17;;;;;;;7.13;5.32;;;18.40;64.30;;;;;;5048315;28;20201;-68
2022/12/26 01:51:52;;;;;;;6.47;5.88;;;18.40;64.30;;;;;;5055378;28;20192;-68
2022/12/26 01:54:19;;;;;;;6.28;5.50;;;18.40;64.30;;;;;;5071777;28;20214;-67
2022/12/26 01:56:46;;;;;;;5.35;4.85;;;18.40;64.30;;;;;;5055273;28;20212;-68
2022/12/26 01:59:20;;;;;;;6.40;5.80;;;18.40;64.30;;;;;;5061397;28;20664;-67
2022/12/26 02:01:50;;;;;;;6.65;5.95;;;18.40;64.30;;;;;;5053563;28;20255;-68
2022/12/26 02:07:09;;;;;;;5.88;5.28;;;18.40;64.40;;;;;;5064629;28;20196;-68
2022/12/26 02:09:36;;;;;;;6.10;5.50;;;18.50;64.40;;;;;;5071521;28;20194;-67
2022/12/26 02:12:19;;;;;;;5.32;4.63;;;18.40;64.40;;;;;;5059783;28;20195;-67
2022/12/26 02:14:46;;;;;;;6.43;5.82;;;18.40;64.30;;;;;;5069276;28;20225;-68
2022/12/26 02:17:12;;;;;;;5.93;5.28;;;18.40;64.30;;;;;;5071671;28;20190;-68
2022/12/26 02:19:59;;;;;;;5.85;5.07;;;18.40;64.30;;;;;;5071061;28;20210;-67
2022/12/26 02:23:16;;;;;;;6.75;5.50;;;18.40;64.30;;;;;;5054713;28;20265;-67
2022/12/26 02:26:26;;;;;;;5.18;4.68;;;18.40;64.30;;;;;;5071325;28;20190;-68
2022/12/26 02:29:03;;;;;;;5.15;4.65;;;18.40;64.30;;;;;;5072210;28;20245;-67
2022/12/26 02:31:52;;;;;;;5.90;4.93;;;18.40;64.30;;;;;;5071495;28;20667;-68
2022/12/26 02:35:00;;;;;;;5.10;4.60;;;18.40;64.30;;;;;;5066606;28;20167;-67
2022/12/26 02:37:48;;;;;;;6.10;5.50;;;18.40;64.30;;;;;;5051258;28;20279;-67
2022/12/26 02:40:47;;;;;;;5.90;5.10;;;18.40;64.30;;;;;;5047233;28;20202;-67
2022/12/26 02:43:26;;;;;;;5.53;4.47;;;18.40;64.30;;;;;;5070690;28;20197;-68
2022/12/26 03:13:35;;;;;;;5.30;4.43;;;18.40;64.30;;;;;;5070800;28;20667;-68
2022/12/26 03:19:04;;;;;;;4.68;4.13;;;18.40;64.30;;;;;;5085109;28;20307;-67
2022/12/26 03:21:39;;;;;;;5.40;4.38;;;18.40;64.30;;;;;;5066070;28;20193;-68
2022/12/26 03:24:09;;;;;;;5.22;4.72;;;18.40;64.30;;;;;;5051054;28;20189;-68
2022/12/26 03:26:46;;;;;;;4.80;4.40;;;18.40;64.30;;;;;;5058316;28;20208;-67
2022/12/26 03:32:11;;;;;;;4.45;3.90;;;18.40;64.30;;;;;;5063741;28;20186;-67
2022/12/26 03:34:43;;;;;;;4.95;4.43;;;18.40;64.30;;;;;;5062008;28;20246;-67
2022/12/26 03:37:33;;;;;;;4.35;3.95;;;18.40;64.30;;;;;;5054604;28;20209;-68
2022/12/26 04:19:26;;;;;;;4.50;4.10;;;18.40;64.20;;;;;;5070099;28;20220;-67
2022/12/26 04:45:10;;;;;;;4.40;4.00;;;18.40;64.20;;;;;;5073141;28;20193;-67
2022/12/26 04:47:36;;;;;;;4.18;3.78;;;18.40;64.20;;;;;;5081514;28;20200;-67
2022/12/26 04:50:12;;;;;;;3.80;3.42;;;18.40;64.20;;;;;;5065691;28;20222;-67
2022/12/26 04:52:53;;;;;;;3.45;3.15;;;18.40;64.20;;;;;;5072817;28;20193;-67
2022/12/26 04:55:19;;;;;;;3.80;3.47;;;18.40;64.10;;;;;;5053049;28;20186;-67
2022/12/26 04:57:45;;;;;;;4.15;3.72;;;18.40;64.20;;;;;;5058083;28;20206;-67
2022/12/26 05:00:12;;;;;;;4.57;3.83;;;18.40;64.20;;;;;;5052961;28;20202;-67
2022/12/26 05:11:07;;;;;;;3.72;3.42;;;18.40;64.20;;;;;;5074315;28;20243;-67
2022/12/26 05:13:33;;;;;;;3.70;3.38;;;18.40;64.20;;;;;;5052996;28;20198;-67
2022/12/26 05:29:39;;;;;;;3.60;3.30;;;18.30;64.00;;;;;;5071989;28;20206;-68
2022/12/26 05:32:05;;;;;;;3.92;3.60;;;18.40;64.10;;;;;;5071740;28;20185;-67
2022/12/26 05:34:31;;;;;;;3.47;3.17;;;18.40;64.10;;;;;;5055564;28;20198;-68
2022/12/26 05:36:58;;;;;;;3.72;3.38;;;18.40;64.10;;;;;;5055690;28;20213;-67
2022/12/26 05:39:24;;;;;;;3.42;3.13;;;18.40;64.10;;;;;;5051827;28;20206;-67
2022/12/26 05:41:50;;;;;;;4.03;3.40;;;18.40;64.10;;;;;;5052320;28;20181;-67
2022/12/26 05:44:16;;;;;;;3.55;3.10;;;18.40;64.00;;;;;;5051966;28;20194;-67
2022/12/26 05:46:42;;;;;;;4.28;3.05;;;18.40;64.10;;;;;;5071945;28;20188;-67
2022/12/26 05:49:08;;;;;;;4.47;3.42;;;18.40;64.10;;;;;;5071636;28;20209;-67
2022/12/26 05:51:35;;;;;;;3.53;3.15;;;18.40;64.10;;;;;;5071655;28;20286;-67
2022/12/26 05:54:02;;;;;;;3.80;3.45;;;18.40;64.10;;;;;;5071693;28;20186;-68
2022/12/26 05:56:28;;;;;;;3.47;3.17;;;18.40;64.00;;;;;;5071805;28;20276;-68
2022/12/26 05:58:57;;;;;;;4.28;3.25;;;18.40;64.00;;;;;;5055176;28;20202;-67
2022/12/26 06:01:26;;;;;;;3.28;2.97;;;18.40;64.00;;;;;;5070577;28;20280;-68
2022/12/26 06:03:56;;;;;;;3.30;3.00;;;18.40;64.00;;;;;;5071722;28;20267;-67
2022/12/26 06:06:23;;;;;;;3.58;3.28;;;18.40;64.10;;;;;;5071706;28;20273;-67
2022/12/26 06:08:52;;;;;;;3.15;2.85;;;18.40;64.00;;;;;;5071321;28;20244;-68
2022/12/26 06:11:19;;;;;;;3.60;3.30;;;18.40;64.10;;;;;;5071528;28;20224;-68
2022/12/26 06:13:45;;;;;;;3.65;2.88;;;18.40;64.00;;;;;;5067950;28;20198;-67
2022/12/26 06:16:14;;;;;;;2.78;2.55;;;18.40;64.10;;;;;;5053939;28;20207;-68
2022/12/26 06:18:40;;;;;;;3.38;3.08;;;18.40;64.10;;;;;;5071120;28;20225;-67
2022/12/26 06:21:12;;;;;;;3.63;3.33;;;18.30;63.90;;;;;;5070438;28;20182;-68
2022/12/26 06:23:39;;;;;;;3.00;2.80;;;18.30;63.90;;;;;;5076175;28;20217;-68
2022/12/26 06:26:07;;;;;;;3.50;3.20;;;18.40;64.00;;;;;;5063051;28;20207;-68
2022/12/26 06:28:34;;;;;;;3.17;2.88;;;18.40;64.10;;;;;;5065281;28;20221;-67
2022/12/26 06:31:09;;;;;;;3.30;2.85;;;18.40;64.00;;;;;;5070357;28;20193;-68
2022/12/26 06:33:36;;;;;;;3.50;3.20;;;18.40;64.00;;;;;;5078089;28;20204;-67
2022/12/26 06:36:15;;;;;;;3.45;3.15;;;18.30;64.00;;;;;;5079343;28;20199;-67
2022/12/26 06:38:42;;;;;;;3.53;3.22;;;18.30;63.90;;;;;;5047085;28;20684;-67
2022/12/26 06:41:12;;;;;;;2.90;2.70;;;18.40;64.00;;;;;;5069988;28;20185;-68
2022/12/26 06:43:38;;;;;;;3.17;2.97;;;18.30;63.90;;;;;;5071000;28;20190;-68
2022/12/26 06:46:06;;;;;;;2.72;2.53;;;18.30;63.90;;;;;;5062975;28;20281;-68
2022/12/26 06:48:38;;;;;;;3.10;2.90;;;18.40;64.00;;;;;;5062395;28;20186;-67
2022/12/26 06:51:06;;;;;;;2.83;2.63;;;18.40;64.00;;;;;;5071025;28;20189;-68
2022/12/26 06:53:33;;;;;;;2.92;2.72;;;18.40;64.00;;;;;;5070903;28;20201;-67
2022/12/26 06:56:15;;;;;;;3.05;2.75;;;18.30;63.90;;;;;;5070910;28;20197;-68
2022/12/26 06:58:43;;;;;;;4.93;2.60;;;18.40;64.00;;;;;;5070588;28;20225;-67
2022/12/26 07:01:17;;;;;;;2.97;2.75;;;18.40;64.00;;;;;;5071237;28;20687;-68
2022/12/26 07:03:45;;;;;;;2.97;2.70;;;18.40;64.00;;;;;;5084113;28;20192;-68
2022/12/26 07:06:27;;;;;;;2.80;2.60;;;18.40;64.00;;;;;;5070807;28;20185;-68
2022/12/26 07:08:57;;;;;;;3.22;2.78;;;18.40;64.00;;;;;;5054245;28;20205;-67
2022/12/26 07:11:30;;;;;;;3.30;3.03;;;18.30;63.90;;;;;;5054127;28;20196;-67
2022/12/26 07:13:56;;;;;;;3.15;2.92;;;18.40;64.00;;;;;;5070779;28;20196;-68
2022/12/26 07:16:22;;;;;;;2.70;2.50;;;18.40;64.00;;;;;;5054386;28;20217;-68
2022/12/26 07:18:52;;;;;;;3.17;2.88;;;18.40;64.00;;;;;;5053728;28;20222;-68
2022/12/26 07:21:18;;;;;;;3.15;2.85;;;18.40;64.00;;;;;;5070703;28;20281;-68
2022/12/26 07:23:44;;;;;;;3.33;3.03;;;18.40;64.00;;;;;;5070683;28;20230;-68
2022/12/26 07:26:10;;;;;;;3.58;3.28;;;18.30;63.90;;;;;;5054545;28;20190;-67
2022/12/26 07:28:35;;;;;;;2.80;2.50;;;18.40;64.00;;;;;;5074498;28;20239;-67
2022/12/26 07:31:02;;;;;;;3.72;3.00;;;18.40;64.00;;;;;;5075773;28;20197;-68
2022/12/26 07:33:29;;;;;;;2.90;2.70;;;18.30;63.90;;;;;;5057761;28;20319;-67
2022/12/26 07:36:00;;;;;;;2.90;2.70;;;18.40;64.00;;;;;;5057772;28;20193;-68
2022/12/26 07:38:26;;;;;;;2.95;2.75;;;18.40;64.00;;;;;;5054056;28;20332;-67
2022/12/26 07:40:55;;;;;;;3.63;3.33;;;18.40;64.00;;;;;;5070583;28;20213;-68
2022/12/26 07:43:22;;;;;;;2.72;2.53;;;18.40;64.00;;;;;;5074440;28;20178;-68
2022/12/26 07:45:50;;;;;;;3.95;2.97;;;18.40;64.00;;;;;;5075465;28;20185;-67
2022/12/26 07:48:16;;;;;;;3.28;2.97;;;18.40;64.00;;;;;;5082850;28;20189;-68
2022/12/26 07:50:45;;;;;;;3.05;2.75;;;18.40;64.00;;;;;;5074166;28;20682;-67
2022/12/26 07:53:13;;;;;;;3.33;3.03;;;18.30;63.90;;;;;;5073825;28;20197;-68
2022/12/26 07:55:39;;;;;;;2.80;2.60;;;18.40;64.00;;;;;;5074065;28;20194;-68
2022/12/26 07:58:05;;;;;;;3.38;2.67;;;18.40;64.00;;;;;;5057051;28;20240;-68
2022/12/26 08:00:30;;;;;;;3.53;3.20;;;18.30;63.90;;;;;;5075313;28;20201;-68
2022/12/26 08:02:56;;;;;;;3.08;2.70;;;18.40;64.00;;;;;;5075105;28;20228;-68
2022/12/26 08:05:22;;;;;;;3.10;2.80;;;18.40;64.00;;;;;;5073872;28;20178;-68
2022/12/26 08:07:48;;;;;;;3.08;2.70;;;18.40;64.00;;;;;;5074099;28;20711;-68
2022/12/26 08:10:15;;;;;;;3.45;2.95;;;18.40;64.00;;;;;;5073795;28;20209;-68
2022/12/26 08:12:41;;;;;;;2.92;2.72;;;18.40;64.00;;;;;;5067855;28;20207;-68
2022/12/26 08:15:10;;;;;;;3.38;3.08;;;18.30;63.90;;;;;;5071732;28;20194;-67
2022/12/26 08:17:35;;;;;;;2.95;2.65;;;18.40;64.00;;;;;;5082373;28;20220;-68
2022/12/26 08:20:01;;;;;;;3.22;2.92;;;18.30;63.90;;;;;;5081711;28;20202;-68
2022/12/26 08:22:27;;;;;;;3.10;2.85;;;18.40;64.00;;;;;;5062033;28;20190;-67
2022/12/26 08:24:53;;;;;;;3.25;2.95;;;18.40;64.00;;;;;;5055311;28;20189;-68
2022/12/26 08:27:18;;;;;;;3.08;2.83;;;18.40;64.00;;;;;;5055592;28;20250;-69
2022/12/26 08:29:46;;;;;;;2.95;2.70;;;18.40;64.00;;;;;;5070215;28;20224;-68
2022/12/26 08:32:11;;;;;;;4.07;3.03;;;18.40;64.00;;;;;;5073467;28;20188;-69
2022/12/26 08:34:37;;;;;;;3.40;3.10;;;18.40;64.10;;;;;;5073544;28;20198;-69
2022/12/26 08:37:03;;;;;;;3.33;3.03;;;18.40;64.00;;;;;;5064298;28;20221;-69
2022/12/26 08:39:29;;;;;;;2.95;2.75;;;18.40;64.40;;;;;;5073227;28;20205;-69
2022/12/26 08:41:54;;;;;;;2.95;2.65;;;18.40;64.30;;;;;;5056774;28;20235;-69
2022/12/26 08:44:20;;;;;;;2.75;2.55;;;18.40;64.20;;;;;;5070111;28;20193;-69
2022/12/26 08:46:46;;;;;;;3.03;2.83;;;18.40;64.20;;;;;;5051609;28;20185;-69
2022/12/26 08:49:12;;;;;;;2.70;2.50;;;18.40;64.20;;;;;;5060422;28;20214;-70
2022/12/26 08:51:38;;;;;;;3.10;2.80;;;18.40;64.20;;;;;;5052688;28;20193;-69
2022/12/26 08:54:04;;;;;;;2.88;2.65;;;18.40;64.20;;;;;;5062031;28;20575;-70
2022/12/26 08:56:31;;;;;;;3.40;3.10;;;18.40;64.20;;;;;;5053054;28;20558;-69
2022/12/26 08:58:56;;;;;;;3.13;2.75;;;18.40;64.20;;;;;;5074300;28;20575;-69
2022/12/26 09:01:26;;;;;;;3.30;3.00;;;18.40;64.20;;;;;;5072766;28;20177;-69
2022/12/26 09:04:03;;;;;;;3.20;2.90;;;18.40;64.20;;;;;;5072826;28;20628;-69
2022/12/26 09:06:34;;;;;;;2.80;2.60;;;18.40;64.20;;;;;;5074174;28;20208;-69
2022/12/26 09:09:00;;;;;;;3.33;3.03;;;18.40;64.20;;;;;;5055381;28;20210;-69
2022/12/26 09:11:27;;;;;;;2.97;2.78;;;18.40;64.10;;;;;;5058410;28;20182;-69
2022/12/26 09:13:56;;;;;;;2.63;2.42;;;18.40;64.10;;;;;;5058966;28;20190;-69
2022/12/26 09:16:27;;;;;;;2.83;2.63;;;18.40;64.20;;;;;;5072361;28;20189;-68
2022/12/26 09:19:00;;;;;;;3.60;2.65;;;18.40;64.20;;;;;;5072250;28;20217;-69
2022/12/26 09:21:27;;;;;;;3.40;2.70;;;18.40;64.20;;;;;;5055652;28;20192;-69
2022/12/26 09:24:06;;;;;;;2.90;2.65;;;18.40;64.20;;;;;;5073751;28;20221;-68
2022/12/26 09:26:32;;;;;;;3.15;2.95;;;18.40;64.50;;;;;;5065280;28;20189;-69
2022/12/26 09:28:58;;;;;;;3.58;3.28;;;18.40;64.30;;;;;;5069136;28;20240;-68
2022/12/26 09:31:29;;;;;;;3.10;2.80;;;18.40;65.10;;;;;;5069026;28;20183;-69
2022/12/26 09:33:55;;;;;;;3.65;3.28;;;18.40;64.30;;;;;;5068207;28;20231;-69
2022/12/26 09:36:25;;;;;;;3.05;2.83;;;18.40;64.30;;;;;;5055335;28;20614;-69
2022/12/26 09:38:53;;;;;;;3.83;3.08;;;18.40;64.30;;;;;;5080572;28;20248;-68
2022/12/26 09:41:52;;;;;;;3.03;2.63;;;18.40;64.30;;;;;;5071995;28;20189;-69
2022/12/26 09:44:51;;;;;;;6.45;2.90;;;18.40;64.30;;;;;;5062773;28;20266;-69
2022/12/26 09:47:34;;;;;;;2.72;2.53;;;18.40;64.30;;;;;;5074096;28;20653;-69
2022/12/26 09:50:28;;;;;;;3.10;2.80;;;18.40;64.30;;;;;;5075227;28;20211;-69
2022/12/26 09:52:59;;;;;;;3.35;2.60;;;18.40;64.30;;;;;;5054885;28;20182;-68
2022/12/26 09:55:55;;;;;;;2.58;2.38;;;18.40;64.30;;;;;;5047272;28;20217;-69
2022/12/26 09:58:55;;;;;;;3.08;2.72;;;18.40;64.30;;;;;;5054947;28;20213;-69
2022/12/26 10:01:27;;;;;;;3.00;2.70;;;18.40;64.30;;;;;;5078442;28;20221;-69
2022/12/26 10:03:58;;;;;;;3.80;2.53;;;18.40;64.40;;;;;;5066996;28;20181;-69
2022/12/26 10:06:37;;;;;;;3.05;2.65;;;18.40;64.30;;;;;;5074410;28;20181;-69
2022/12/26 10:09:41;;;;;;;3.47;2.80;;;18.40;64.40;;;;;;5072024;28;20229;-69
2022/12/26 10:12:31;;;;;;;3.22;2.55;;;18.40;64.40;;;;;;5009408;22;20720;-70
2022/12/26 10:15:32;;;;;;;3.75;2.95;;;18.40;64.30;;;;;;4950554;29;20282;-70
2022/12/26 10:18:31;;;;;;;3.28;2.97;;;18.40;64.40;;;;;;4976241;28;20206;-69
2022/12/26 10:21:25;;;;;;;3.85;3.45;;;18.40;64.80;;;;;;4957344;28;20245;-70
2022/12/26 10:24:00;;;;;;;3.28;3.03;;;18.40;64.40;;;;;;4970695;28;20183;-70
2022/12/26 10:26:36;;;;;;;3.78;3.33;;;18.40;64.30;;;;;;4953881;28;20190;-69
2022/12/26 10:29:07;;;;;;;4.43;3.35;;;18.40;64.40;;;;;;4988839;28;20183;-69
2022/12/26 10:31:44;;;;;;;3.65;3.35;;;18.40;64.40;;;;;;4949781;28;20276;-70
2022/12/26 10:34:28;;;;;;;5.05;3.60;;;18.40;64.40;;;;;;4976213;28;20182;-70
2022/12/26 10:37:21;;;;;;;3.80;3.40;;;18.40;64.50;;;;;;4950519;28;20205;-69
2022/12/26 10:40:33;;;;;;;3.17;2.85;;;18.40;64.40;;;;;;4928470;28;20629;-69
2022/12/26 10:43:19;;;;;;;3.75;3.38;;;18.40;64.40;;;;;;4954512;28;20190;-69
2022/12/26 10:46:15;;;;;;;3.75;3.00;;;18.50;64.60;;;;;;4972646;28;20182;-69
2022/12/26 10:48:41;;;;;;;3.30;3.00;;;18.40;64.50;;;;;;4946150;28;20201;-69
2022/12/26 10:51:08;;;;;;;3.97;3.20;;;18.40;64.50;;;;;;4951193;28;20218;-69
2022/12/26 10:53:41;;;;;;;3.63;3.13;;;18.50;64.60;;;;;;5025571;28;20213;-69
2022/12/26 10:56:07;;;;;;;2.97;2.67;;;18.50;64.60;;;;;;4966525;28;20195;-69
2022/12/26 10:58:36;;;;;;;4.45;2.97;;;18.40;64.60;;;;;;4953257;28;20257;-69
2022/12/26 11:01:28;;;;;;;3.92;2.90;;;18.40;64.60;;;;;;5050122;28;20210;-69
2022/12/26 11:04:01;;;;;;;3.35;2.80;;;18.40;64.80;;;;;;4997198;28;20254;-69
2022/12/26 11:06:35;;;;;;;3.28;2.95;;;18.40;64.60;;;;;;5048534;28;20198;-69
2022/12/26 11:09:01;;;;;;;3.05;2.30;;;18.50;64.70;;;;;;5012217;28;20273;-69
2022/12/26 11:11:45;;;;;;;3.65;3.10;;;18.40;64.60;;;;;;4964366;28;20301;-69
2022/12/26 11:14:36;;;;;;;2.80;2.60;;;18.50;64.70;;;;;;4950089;28;20259;-70
2022/12/26 11:17:08;;;;;;;2.55;2.35;;;18.40;64.60;;;;;;4992865;28;20226;-70
2022/12/26 11:19:41;;;;;;;2.80;2.53;;;18.40;64.60;;;;;;4941123;28;20276;-69
2022/12/26 11:22:33;;;;;;;2.63;2.42;;;18.40;64.60;;;;;;4934172;28;20221;-70
2022/12/26 11:25:33;;;;;;;3.10;2.45;;;18.50;64.80;;;;;;4984642;28;20202;-70
2022/12/26 11:28:23;;;;;;;2.90;2.60;;;18.40;64.60;;;;;;5029670;28;20239;-70
2022/12/26 11:30:49;;;;;;;5.28;2.78;;;18.50;64.80;;;;;;4945291;28;20568;-71
2022/12/26 11:33:24;;;;;;;2.50;2.30;;;18.50;64.80;;;;;;5004189;28;20179;-70
2022/12/26 11:36:18;;;;;;;3.35;2.40;;;18.50;64.80;;;;;;5009004;28;20193;-70
2022/12/26 11:39:01;;;;;;;3.55;2.13;;;18.50;64.80;;;;;;4961741;28;20231;-70
2022/12/26 11:41:34;;;;;;;2.92;2.65;;;18.50;64.80;;;;;;4962699;28;20272;-70
2022/12/26 11:44:09;;;;;;;2.90;2.38;;;18.50;64.80;;;;;;5050627;28;20566;-71
2022/12/26 11:47:06;;;;;;;3.60;2.85;;;18.50;64.80;;;;;;4942134;28;20197;-70
2022/12/26 11:49:53;;;;;;;2.22;2.03;;;18.40;64.80;;;;;;4949357;28;20225;-70
2022/12/26 11:52:50;;;;;;;2.65;2.45;;;18.40;64.80;;;;;;4952926;28;20293;-70
2022/12/26 11:55:23;;;;;;;3.15;2.22;;;18.50;64.80;;;;;;4949820;28;20274;-70
2022/12/26 11:58:08;;;;;;;3.08;1.98;;;18.50;64.80;;;;;;5006660;28;20314;-70
2022/12/26 12:00:49;;;;;;;2.83;2.30;;;18.50;65.30;;;;;;4949530;28;20233;-71
2022/12/26 12:03:38;;;;;;;3.58;2.35;;;18.50;65.20;;;;;;4950950;28;20198;-70
2022/12/26 12:06:27;;;;;;;3.90;2.30;;;18.50;65.20;;;;;;4962230;28;20195;-71
2022/12/26 12:09:01;;;;;;;2.60;2.15;;;18.50;65.00;;;;;;4995162;28;20202;-71
2022/12/26 12:11:41;;;;;;;2.63;1.73;;;18.50;65.10;;;;;;5038174;28;20217;-70
2022/12/26 12:14:36;;;;;;;2.92;2.20;;;18.50;65.10;;;;;;5008554;28;20243;-70
2022/12/26 12:17:21;;;;;;;4.10;2.10;;;18.50;65.10;;;;;;4993246;28;20658;-70
2022/12/26 12:20:29;;;;;;;3.20;2.13;;;18.50;65.00;;;;;;5003862;28;20221;-70
2022/12/26 12:23:51;;;;;;;2.10;1.90;;;18.50;65.00;;;;;;5021431;28;20190;-70
2022/12/26 12:26:52;;;;;;;2.40;1.75;;;18.50;65.00;;;;;;4927897;28;20198;-70
2022/12/26 12:29:49;;;;;;;3.88;2.22;;;18.50;65.00;;;;;;4954966;28;20191;-71
2022/12/26 12:33:01;;;;;;;2.90;1.75;;;18.50;65.00;;;;;;4940979;28;20219;-70
2022/12/26 12:36:17;;;;;;;2.65;1.95;;;18.50;65.00;;;;;;4965987;28;20189;-70
2022/12/26 12:39:19;;;;;;;3.33;1.80;;;18.50;65.00;;;;;;4987435;28;20226;-70
2022/12/26 12:42:00;;;;;;;1.80;1.70;;;18.50;64.90;;;;;;5021228;28;20245;-70
2022/12/26 12:45:03;;;;;;;2.25;2.03;;;18.50;64.90;;;;;;5046458;28;20228;-70
2022/12/26 12:47:35;;;;;;;2.67;1.88;;;18.50;65.00;;;;;;4995764;28;20197;-70
2022/12/26 12:50:24;;;;;;;2.20;1.90;;;18.50;65.30;;;;;;5020030;28;20190;-70
2022/12/26 12:53:10;;;;;;;2.08;1.63;;;18.50;65.10;;;;;;4952531;28;20229;-70
2022/12/26 12:56:14;;;;;;;2.35;1.92;;;18.50;65.30;;;;;;4985962;28;20190;-70
2022/12/26 12:59:09;;;;;;;2.72;1.85;;;18.50;65.20;;;;;;4930942;28;20295;-70
2022/12/26 13:01:54;;;;;;;2.40;1.85;;;18.50;65.30;;;;;;4966940;28;20221;-71
2022/12/26 13:04:24;;;;;;;1.88;1.70;;;18.50;65.30;;;;;;4952974;29;20209;-70
2022/12/26 13:07:05;;;;;;;2.65;1.60;;;18.50;65.30;;;;;;4960708;28;20251;-70
2022/12/26 13:09:44;;;;;;;1.85;1.60;;;18.50;65.30;;;;;;4951725;28;20256;-71
2022/12/26 13:12:29;;;;;;;1.92;1.65;;;18.50;65.20;;;;;;4952155;28;20218;-70
2022/12/26 13:15:02;;;;;;;1.60;1.50;;;18.50;65.20;;;;;;5019747;28;20194;-70
2022/12/26 13:17:50;;;;;;;1.83;1.48;;;18.50;65.20;;;;;;4952033;29;20210;-70
2022/12/26 13:20:45;;;;;;;2.50;1.70;;;18.50;65.20;;;;;;4948952;28;20194;-70
2022/12/26 13:26:29;;;;;;;2.95;1.70;;;18.50;65.20;;;;;;4951859;28;20183;-70
2022/12/26 13:29:43;;;;;;;2.90;1.70;;;18.50;65.20;;;;;;4952075;29;20187;-70
2022/12/26 13:32:22;;;;;;;1.33;1.23;;;18.40;65.10;;;;;;4951388;28;20214;-71
2022/12/26 13:34:51;;;;;;;5.15;1.70;;;18.50;65.20;;;;;;4936889;29;20218;-70
2022/12/26 13:37:55;;;;;;;2.13;1.73;;;18.50;65.20;;;;;;4952338;28;20708;-70
2022/12/26 13:40:28;;;;;;;1.60;1.50;;;18.50;65.30;;;;;;4949363;28;20190;-70
2022/12/26 13:46:48;;;;;;;1.40;1.30;;;18.50;65.20;;;;;;4951799;28;20273;-69
2022/12/26 13:49:34;;;;;;;3.25;1.45;;;18.40;65.00;;;;;;4946035;28;20295;-68
2022/12/26 13:52:09;;;;;;;1.90;1.70;;;18.50;65.10;;;;;;4950727;28;20211;-68
2022/12/26 13:54:50;;;;;;;2.30;1.50;;;18.50;65.10;;;;;;4950916;28;20189;-68
2022/12/26 13:57:44;;;;;;;1.55;1.45;;;18.50;65.10;;;;;;4950385;28;20218;-68
2022/12/26 14:00:41;;;;;;;2.17;1.60;;;18.40;65.00;;;;;;4953708;28;20657;-68
2022/12/26 14:03:31;;;;;;;1.48;1.38;;;18.50;65.00;;;;;;4993539;28;20189;-68
2022/12/26 14:06:15;;;;;;;2.25;1.50;;;18.50;65.10;;;;;;4966670;28;20270;-68
2022/12/26 14:09:10;;;;;;;1.70;1.60;;;18.50;65.20;;;;;;4934427;28;20217;-68
2022/12/26 14:12:06;;;;;;;1.60;1.50;;;18.50;65.00;;;;;;4949140;28;20230;-68
2022/12/26 14:15:15;;;;;;;1.83;1.48;;;18.50;65.10;;;;;;4986705;28;20194;-68
2022/12/26 14:18:15;;;;;;;1.85;1.48;;;18.50;65.10;;;;;;4955222;28;20697;-68
2022/12/26 14:21:14;;;;;;;2.90;1.73;;;18.50;65.00;;;;;;5008397;28;20218;-68
2022/12/26 14:24:11;;;;;;;1.90;1.60;;;18.50;65.00;;;;;;4951975;28;20725;-68
2022/12/26 14:27:16;;;;;;;1.63;1.40;;;18.50;65.00;;;;;;4952647;28;20202;-67
2022/12/26 14:30:17;;;;;;;3.17;1.35;;;18.40;64.90;;;;;;4950133;28;20281;-68
2022/12/26 14:33:09;;;;;;;1.90;1.30;;;18.50;65.00;;;;;;4950370;28;20194;-68
2022/12/26 14:36:23;;;;;;;1.88;1.30;;;18.50;65.00;;;;;;4949429;28;20205;-68
2022/12/26 14:39:35;;;;;;;1.83;1.40;;;18.40;64.90;;;;;;4949908;28;20602;-68
2022/12/26 14:44:54;;;;;;;1.67;1.30;;;18.50;65.00;;;;;;4943222;28;20291;-68
2022/12/26 14:47:48;;;;;;;2.45;1.38;;;18.50;64.90;;;;;;5017569;28;20197;-68
2022/12/26 14:50:39;;;;;;;3.42;1.35;;;18.40;64.90;;;;;;5033436;28;20214;-68
2022/12/26 14:53:26;;;;;;;1.73;1.40;;;18.40;64.90;;;;;;4949649;28;20190;-68
2022/12/26 14:56:09;;;;;;;1.50;1.33;;;18.40;64.90;;;;;;4934089;28;20198;-68
2022/12/26 14:59:26;;;;;;;1.52;1.30;;;18.50;64.90;;;;;;4949619;28;20254;-68
2022/12/26 15:02:28;;;;;;;1.20;1.02;;;18.50;64.90;;;;;;4931489;28;20225;-68
2022/12/26 15:05:09;;;;;;;1.95;1.20;;;18.50;64.90;;;;;;4949058;28;20255;-68
2022/12/26 15:07:57;;;;;;;1.38;1.23;;;18.40;64.80;;;;;;4949792;28;20198;-68
2022/12/26 15:10:55;;;;;;;1.40;1.30;;;18.50;64.90;;;;;;4936214;28;20287;-68
2022/12/26 15:13:54;;;;;;;3.20;1.30;;;18.40;64.80;;;;;;4966112;28;20203;-68
2022/12/26 15:16:45;;;;;;;1.65;1.20;;;18.50;64.90;;;;;;4949840;28;20202;-68
2022/12/26 15:19:55;;;;;;;1.83;1.40;;;18.50;64.90;;;;;;4949850;28;20219;-68
2022/12/26 15:22:55;;;;;;;1.38;1.23;;;18.40;64.80;;;;;;4943274;28;20222;-68
2022/12/26 15:26:17;;;;;;;1.67;1.48;;;18.40;64.80;;;;;;4949449;28;20217;-68
2022/12/26 15:29:13;;;;;;;1.15;1.05;;;18.40;64.80;;;;;;4949681;28;20599;-68
2022/12/26 15:32:15;;;;;;;1.63;1.33;;;18.50;64.80;;;;;;4949128;28;20223;-68
2022/12/26 15:34:53;;;;;;;1.25;1.15;;;18.40;64.70;;;;;;4949555;28;20260;-68
2022/12/26 15:37:55;;;;;;;1.65;1.27;;;18.50;64.80;;;;;;4949533;28;20310;-69
2022/12/26 15:41:01;;;;;;;1.48;1.20;;;18.40;64.80;;;;;;4949365;28;20178;-68
2022/12/26 15:43:51;;;;;;;1.45;1.35;;;18.50;64.80;;;;;;4988704;28;20226;-68
2022/12/26 15:46:34;;;;;;;1.10;1.00;;;18.50;64.80;;;;;;4988141;28;20296;-68
2022/12/26 15:49:17;;;;;;;1.40;1.25;;;18.50;64.80;;;;;;4947858;28;20183;-68
2022/12/26 15:52:12;;;;;;;1.58;1.23;;;18.40;64.70;;;;;;4952954;28;20211;-68